Tail Wind — WDJ3885 — position and weather

sailwx.info

Track history (hours):
 
Tides and Currents Weather Stations Pressure Air Temp Water Temp Dewpoint Dewpoint Depression Visibility Wind Speed Wind Dir Waves Ship Positions

Tail Wind

Owner: Caliendo Jr, Thomas J, Hillsborough, NJ. More information available from US FCC via Universal Licensing System and Coast Guard Vessel Documentation Center.

Last reported at 2018-Mar-03 16:28 UTC. Time now 2018-Jun-24 07:12 UTC.
Position N 31°51' W 081°09'.
Warning: this ship's position is months out of date.

Length 14 m.

Type: Sailing vessel. MMSI: 367772340.

Date/timePositionNaut miles runAvg speedWind from/ knotsBaromVisibWave heightAir tempDewpointWater temp
2018-Mar-03 16:28N 31°51' W 081°09'3 5.1
2018-Mar-03 15:57N 31°51' W 081°05'2 5.1
2018-Mar-03 15:29N 31°54' W 081°06'3 4.8
2018-Mar-03 14:56N 31°56' W 081°05'3 6.4
2018-Mar-03 14:28N 31°59' W 081°03'3 5.8
2018-Mar-03 14:00N 32°01' W 081°01'2 3.2
2018-Mar-03 13:28N 32°02' W 081°03'0 0.0
2018-Mar-03 12:58N 32°02' W 081°03'0 0.0
2018-Mar-02 00:18N 32°02' W 081°03'0 0.1
2018-Mar-02 00:00N 32°02' W 081°03'3 5.2
2018-Mar-01 23:30N 32°04' W 081°02'0 0.6
2018-Mar-01 23:00N 32°04' W 081°01'0 0.5
2018-Mar-01 22:30N 32°04' W 081°01'3 5.8
2018-Mar-01 22:00N 32°04' W 080°58'2 4.0
2018-Mar-01 21:30N 32°05' W 080°56'0 0.0
2018-Mar-01 21:00N 32°05' W 080°56'0 0.0
2018-Mar-01 20:23N 32°05' W 080°56'1 1.5
2018-Mar-01 20:00N 32°05' W 080°55'2 4.5
2018-Mar-01 19:30N 32°07' W 080°54'1 2.5
2018-Mar-01 18:59N 32°08' W 080°53'2 4.8
2018-Mar-01 18:30N 32°09' W 080°50'4 6.8
2018-Mar-01 17:56N 32°12' W 080°47'  
Track history (hours):
 
Tides and Currents Weather Stations Pressure Air Temp Water Temp Dewpoint Dewpoint Depression Visibility Wind Speed Wind Dir Waves Ship Positions

Tail Wind

Owner: Caliendo Jr, Thomas J, Hillsborough, NJ. More information available from US FCC via Universal Licensing System and Coast Guard Vessel Documentation Center.

Last reported at 2018-Mar-03 16:28 UTC. Time now 2018-Jun-24 07:12 UTC.
Position N 31°51' W 081°09'.
Warning: this ship's position is months out of date.

Length 14 m.

Type: Sailing vessel. MMSI: 367772340.

Date/timePositionNaut miles runAvg speedWind from/ knotsBaromVisibWave heightAir tempDewpointWater temp
2018-Mar-03 16:28N 31°51' W 081°09'3 5.1
2018-Mar-03 15:57N 31°51' W 081°05'2 5.1
2018-Mar-03 15:29N 31°54' W 081°06'3 4.8
2018-Mar-03 14:56N 31°56' W 081°05'3 6.4
2018-Mar-03 14:28N 31°59' W 081°03'3 5.8
2018-Mar-03 14:00N 32°01' W 081°01'2 3.2
2018-Mar-03 13:28N 32°02' W 081°03'0 0.0
2018-Mar-03 12:58N 32°02' W 081°03'0 0.0
2018-Mar-02 00:18N 32°02' W 081°03'0 0.1
2018-Mar-02 00:00N 32°02' W 081°03'3 5.2
2018-Mar-01 23:30N 32°04' W 081°02'0 0.6
2018-Mar-01 23:00N 32°04' W 081°01'0 0.5
2018-Mar-01 22:30N 32°04' W 081°01'3 5.8
2018-Mar-01 22:00N 32°04' W 080°58'2 4.0
2018-Mar-01 21:30N 32°05' W 080°56'0 0.0
2018-Mar-01 21:00N 32°05' W 080°56'0 0.0
2018-Mar-01 20:23N 32°05' W 080°56'1 1.5
2018-Mar-01 20:00N 32°05' W 080°55'2 4.5
2018-Mar-01 19:30N 32°07' W 080°54'1 2.5
2018-Mar-01 18:59N 32°08' W 080°53'2 4.8
2018-Mar-01 18:30N 32°09' W 080°50'4 6.8
2018-Mar-01 17:56N 32°12' W 080°47'  

Dump ship's entire track history